Time;durP1;ratioP1;P1;durP2;ratioP2;P2;SDS_P1;SDS_P2;PMS_P1;PMS_P2;Temp;Humidity;BMP_temperature;BMP_pressure;BME280_temperature;BME280_humidity;BME280_pressure;Samples;Min_cycle;Max_cycle;Signal;HPM_P1;HPM_P2
2021/11/18 00:01:02;;;;;;;18.73;6.32;;;10.20;88.40;;;;;;5041927;28;20045;-61
2021/11/18 00:03:28;;;;;;;31.30;6.70;;;10.20;88.30;;;;;;5046610;28;20587;-61
2021/11/18 00:05:53;;;;;;;22.75;7.35;;;10.20;88.30;;;;;;5030832;28;20036;-60
2021/11/18 00:08:19;;;;;;;22.08;6.55;;;10.20;88.20;;;;;;5045128;28;20040;-60
2021/11/18 00:10:46;;;;;;;17.00;5.93;;;10.20;88.30;;;;;;5044410;28;20037;-60
2021/11/18 00:13:14;;;;;;;21.20;6.35;;;10.10;88.30;;;;;;5044309;28;20111;-60
2021/11/18 00:15:42;;;;;;;21.40;6.50;;;10.10;88.30;;;;;;5028994;28;20044;-60
2021/11/18 00:18:09;;;;;;;22.10;5.82;;;10.10;88.30;;;;;;5045831;28;20638;-60
2021/11/18 00:20:38;;;;;;;19.88;6.38;;;10.10;88.40;;;;;;5013783;28;20036;-61
2021/11/18 00:23:04;;;;;;;17.35;5.82;;;10.10;88.50;;;;;;5028182;28;20069;-61
2021/11/18 00:25:29;;;;;;;15.40;6.15;;;10.10;88.50;;;;;;5045084;28;20384;-60
2021/11/18 00:27:55;;;;;;;16.02;6.05;;;10.10;88.50;;;;;;5064325;28;20491;-61
2021/11/18 00:30:21;;;;;;;15.73;5.80;;;10.10;88.60;;;;;;5063010;28;20048;-61
2021/11/18 00:32:46;;;;;;;20.58;5.93;;;10.00;88.50;;;;;;5045544;28;20569;-61
2021/11/18 00:35:17;;;;;;;14.98;5.47;;;10.00;88.50;;;;;;5027816;28;20033;-61
2021/11/18 00:37:43;;;;;;;14.25;5.25;;;10.00;88.60;;;;;;5028861;28;20059;-60
2021/11/18 00:40:09;;;;;;;14.82;5.32;;;10.00;88.70;;;;;;5010182;28;20101;-61
2021/11/18 00:42:35;;;;;;;15.43;5.30;;;10.00;88.70;;;;;;5045081;28;20086;-60
2021/11/18 00:45:00;;;;;;;21.77;5.82;;;10.00;88.80;;;;;;5046487;28;20456;-60
2021/11/18 00:47:26;;;;;;;19.50;5.10;;;10.00;88.70;;;;;;5027584;28;20035;-61
2021/11/18 00:49:52;;;;;;;13.77;6.03;;;9.90;88.60;;;;;;5028802;28;20391;-60
2021/11/18 00:52:17;;;;;;;16.88;7.25;;;10.00;88.70;;;;;;5043358;28;20037;-60
2021/11/18 00:54:43;;;;;;;16.27;7.38;;;9.90;88.70;;;;;;5029037;28;20032;-61
2021/11/18 00:57:08;;;;;;;17.67;7.18;;;9.90;88.70;;;;;;5045662;28;20033;-61
2021/11/18 00:59:34;;;;;;;20.30;7.00;;;9.90;88.70;;;;;;5046220;28;20017;-60
2021/11/18 01:01:59;;;;;;;19.67;7.32;;;9.90;88.70;;;;;;5063011;28;20086;-60
2021/11/18 01:04:27;;;;;;;15.50;7.20;;;9.90;88.70;;;;;;5027729;28;20239;-60
2021/11/18 01:06:53;;;;;;;24.27;7.95;;;9.90;88.70;;;;;;5046026;28;20016;-61
2021/11/18 01:09:18;;;;;;;34.03;8.13;;;9.90;88.80;;;;;;5063178;28;20035;-60
2021/11/18 01:11:44;;;;;;;53.35;10.27;;;9.80;88.80;;;;;;5046415;28;20024;-60
2021/11/18 01:14:11;;;;;;;34.05;8.38;;;9.80;88.80;;;;;;5029172;28;20388;-60
2021/11/18 01:16:37;;;;;;;38.42;9.32;;;9.90;89.00;;;;;;5010425;28;20040;-61
2021/11/18 01:19:04;;;;;;;42.47;8.65;;;9.90;88.90;;;;;;5027846;28;20044;-60
2021/11/18 01:21:29;;;;;;;46.67;8.77;;;9.80;88.90;;;;;;5045704;28;20028;-60
2021/11/18 01:23:55;;;;;;;38.22;8.00;;;9.80;88.80;;;;;;5062204;28;20538;-61
2021/11/18 01:26:20;;;;;;;35.53;8.18;;;9.80;88.90;;;;;;5045409;28;20040;-60
2021/11/18 01:28:46;;;;;;;40.50;8.00;;;9.80;88.90;;;;;;5044530;28;20533;-61
2021/11/18 01:31:12;;;;;;;33.33;8.88;;;9.80;88.90;;;;;;5061529;28;20442;-60
2021/11/18 01:33:38;;;;;;;31.10;7.30;;;9.80;89.30;;;;;;5027828;28;20055;-61
2021/11/18 01:36:04;;;;;;;28.75;7.07;;;9.70;88.80;;;;;;5028875;28;20060;-60
2021/11/18 01:38:31;;;;;;;28.35;7.57;;;9.70;88.90;;;;;;5061302;28;20099;-60
2021/11/18 01:40:58;;;;;;;28.08;7.30;;;9.70;88.90;;;;;;5045236;28;20040;-61
2021/11/18 01:43:26;;;;;;;25.75;6.60;;;9.70;88.90;;;;;;5027530;28;20553;-63
2021/11/18 01:45:51;;;;;;;28.67;6.50;;;9.70;89.00;;;;;;5011875;28;20032;-60
2021/11/18 01:48:17;;;;;;;30.85;6.88;;;9.70;89.00;;;;;;5010418;28;20112;-61
2021/11/18 01:50:43;;;;;;;32.60;6.25;;;9.70;89.20;;;;;;5044857;28;20055;-60
2021/11/18 01:53:11;;;;;;;36.30;7.28;;;9.70;89.30;;;;;;5010005;28;20031;-61
2021/11/18 01:55:37;;;;;;;18.65;7.72;;;9.60;89.30;;;;;;5028600;28;20411;-60
2021/11/18 01:58:03;;;;;;;24.42;6.28;;;9.60;89.30;;;;;;5025853;28;20492;-61
2021/11/18 02:00:32;;;;;;;20.25;6.85;;;9.60;89.40;;;;;;5047506;28;20040;-61
2021/11/18 02:02:58;;;;;;;18.45;6.15;;;9.60;89.50;;;;;;5062018;28;20047;-61
2021/11/18 02:05:29;;;;;;;16.38;6.13;;;9.60;89.50;;;;;;5048722;28;20595;-60
2021/11/18 02:07:55;;;;;;;16.17;6.18;;;9.60;89.60;;;;;;5048512;28;20487;-61
2021/11/18 02:10:23;;;;;;;18.25;6.30;;;9.60;89.60;;;;;;5065890;28;20044;-60
2021/11/18 02:12:48;;;;;;;21.85;6.22;;;9.60;89.50;;;;;;5032195;28;20499;-61
2021/11/18 02:15:17;;;;;;;20.25;6.53;;;9.60;89.70;;;;;;5030184;28;20036;-60
2021/11/18 02:17:42;;;;;;;15.57;6.18;;;9.60;89.70;;;;;;5028832;28;20029;-61
2021/11/18 02:20:08;;;;;;;16.77;5.28;;;9.50;89.70;;;;;;5046443;28;20043;-61
2021/11/18 02:22:34;;;;;;;14.60;6.40;;;9.50;89.80;;;;;;5030688;28;20033;-61
2021/11/18 02:25:04;;;;;;;12.88;5.82;;;9.50;89.90;;;;;;5045132;28;20203;-61
2021/11/18 02:27:30;;;;;;;13.77;5.72;;;9.50;89.90;;;;;;5048462;28;20021;-61
2021/11/18 02:29:57;;;;;;;12.80;5.65;;;9.40;89.90;;;;;;5031262;28;20032;-63
2021/11/18 02:32:25;;;;;;;14.45;6.72;;;9.40;89.90;;;;;;5030806;28;20025;-61
2021/11/18 02:35:06;;;;;;;21.30;6.70;;;9.40;89.90;;;;;;5046269;28;20546;-61
2021/11/18 02:37:32;;;;;;;9.52;6.00;;;9.30;89.90;;;;;;5030146;28;20040;-61
2021/11/18 02:39:57;;;;;;;9.75;5.50;;;9.30;90.00;;;;;;5045401;28;20033;-60
2021/11/18 02:42:23;;;;;;;16.60;5.53;;;9.30;90.00;;;;;;5046422;28;20036;-61
2021/11/18 02:44:49;;;;;;;8.40;5.28;;;9.30;90.00;;;;;;5028699;28;20037;-61
2021/11/18 02:47:14;;;;;;;10.88;5.40;;;9.30;90.00;;;;;;5042020;28;20085;-60
2021/11/18 02:49:45;;;;;;;10.02;5.03;;;9.30;90.00;;;;;;5028445;28;20032;-61
2021/11/18 02:52:13;;;;;;;11.45;4.78;;;9.30;90.00;;;;;;5029237;28;20024;-61
2021/11/18 02:54:39;;;;;;;12.15;5.45;;;9.30;90.00;;;;;;5028896;28;20063;-61
2021/11/18 02:57:06;;;;;;;13.05;5.00;;;9.30;89.80;;;;;;5029302;28;20047;-60
2021/11/18 02:59:31;;;;;;;8.15;4.20;;;9.20;89.80;;;;;;5046721;28;20040;-60
2021/11/18 03:01:57;;;;;;;10.77;4.60;;;9.20;89.90;;;;;;5027370;28;20025;-61
2021/11/18 03:04:22;;;;;;;7.45;4.60;;;9.20;89.90;;;;;;5063039;28;20047;-60
2021/11/18 03:06:48;;;;;;;9.95;4.40;;;9.20;89.80;;;;;;5048289;28;20082;-61
2021/11/18 03:09:13;;;;;;;8.77;3.95;;;9.10;89.70;;;;;;5031556;28;20482;-60
2021/11/18 03:11:39;;;;;;;9.07;4.70;;;9.10;89.60;;;;;;5064915;28;20067;-61
2021/11/18 03:14:04;;;;;;;7.50;3.97;;;9.10;89.60;;;;;;5064824;28;20052;-60
2021/11/18 03:16:30;;;;;;;6.03;4.10;;;9.10;89.70;;;;;;5044678;28;20045;-60
2021/11/18 03:18:55;;;;;;;7.13;4.75;;;9.10;89.70;;;;;;5030233;28;20120;-61
2021/11/18 03:21:23;;;;;;;8.88;4.90;;;9.00;89.70;;;;;;5065775;28;20074;-61
2021/11/18 03:23:49;;;;;;;6.40;4.45;;;9.00;89.60;;;;;;5031673;28;20398;-61
2021/11/18 03:26:16;;;;;;;10.25;4.72;;;9.00;89.60;;;;;;5046096;28;20025;-61
2021/11/18 03:28:42;;;;;;;6.78;5.00;;;9.00;89.50;;;;;;5045564;28;20078;-61
2021/11/18 03:31:08;;;;;;;7.85;5.05;;;9.00;89.60;;;;;;5030811;28;20032;-61
2021/11/18 03:33:45;;;;;;;5.00;4.38;;;8.90;89.50;;;;;;5047444;28;20032;-61
2021/11/18 03:36:11;;;;;;;7.65;4.30;;;8.90;89.90;;;;;;5048770;28;20131;-61
2021/11/18 03:38:37;;;;;;;9.65;5.22;;;8.90;89.50;;;;;;5014145;28;20131;-60
2021/11/18 03:41:06;;;;;;;10.40;5.63;;;8.90;89.50;;;;;;5013292;28;20124;-61
2021/11/18 03:43:38;;;;;;;7.05;5.32;;;8.90;89.50;;;;;;5030820;28;20031;-60
2021/11/18 03:46:03;;;;;;;10.45;5.40;;;8.90;89.40;;;;;;5048505;28;20016;-61
2021/11/18 03:48:32;;;;;;;8.38;5.57;;;8.90;89.30;;;;;;5030747;28;20051;-60
2021/11/18 03:50:58;;;;;;;8.48;4.97;;;8.80;89.30;;;;;;5028594;28;20025;-60
2021/11/18 03:53:24;;;;;;;8.05;4.68;;;8.80;89.30;;;;;;5064120;28;20078;-61
2021/11/18 03:55:50;;;;;;;7.45;5.50;;;8.80;89.40;;;;;;5029450;28;20037;-61
2021/11/18 03:58:15;;;;;;;8.35;5.20;;;8.80;89.50;;;;;;5030835;28;20036;-60
2021/11/18 04:00:41;;;;;;;7.65;4.80;;;8.80;89.50;;;;;;5027588;28;20075;-60
2021/11/18 04:03:08;;;;;;;8.93;4.93;;;8.80;89.60;;;;;;5064295;28;20041;-61
2021/11/18 04:05:34;;;;;;;8.15;5.15;;;8.70;89.50;;;;;;5045271;28;20048;-60
2021/11/18 04:07:59;;;;;;;8.00;4.85;;;8.70;89.50;;;;;;5063318;28;20395;-60
2021/11/18 04:10:26;;;;;;;7.40;4.78;;;8.70;89.40;;;;;;5046852;28;20031;-60
2021/11/18 04:12:52;;;;;;;7.60;5.43;;;8.70;89.50;;;;;;5046369;28;20072;-61
2021/11/18 04:15:18;;;;;;;6.60;5.05;;;8.60;89.70;;;;;;5062843;28;20114;-61
2021/11/18 04:17:44;;;;;;;10.45;6.57;;;8.60;89.70;;;;;;5028459;28;20036;-61
2021/11/18 04:20:10;;;;;;;11.27;6.82;;;8.60;89.60;;;;;;5045212;28;20032;-61
2021/11/18 04:22:36;;;;;;;8.15;6.28;;;8.60;89.70;;;;;;5029229;28;20044;-61
2021/11/18 04:25:03;;;;;;;10.05;6.10;;;8.60;89.80;;;;;;5047115;28;20020;-60
2021/11/18 04:27:29;;;;;;;9.05;5.85;;;8.50;90.00;;;;;;5028534;28;20165;-60
2021/11/18 04:29:54;;;;;;;8.13;6.15;;;8.50;89.90;;;;;;5064464;28;20475;-61
2021/11/18 04:32:22;;;;;;;11.48;6.00;;;8.50;89.90;;;;;;5062278;28;20528;-61
2021/11/18 04:34:47;;;;;;;14.40;5.80;;;8.50;89.90;;;;;;5029050;28;20048;-61
2021/11/18 04:37:13;;;;;;;9.90;6.13;;;8.50;89.90;;;;;;5046520;28;20028;-61
2021/11/18 04:39:39;;;;;;;9.27;5.85;;;8.50;90.00;;;;;;5047112;28;20455;-60
2021/11/18 04:42:04;;;;;;;9.30;6.28;;;8.50;90.00;;;;;;5030086;28;20393;-61
2021/11/18 04:44:30;;;;;;;7.57;5.95;;;8.50;90.10;;;;;;5028966;28;20058;-61
2021/11/18 04:46:55;;;;;;;11.40;6.38;;;8.40;90.10;;;;;;5044455;28;20048;-62
2021/11/18 04:49:21;;;;;;;11.88;6.93;;;8.40;90.10;;;;;;5046393;28;20013;-61
2021/11/18 04:51:47;;;;;;;9.98;7.75;;;8.40;90.10;;;;;;5045996;28;20042;-65
2021/11/18 04:54:12;;;;;;;12.57;7.68;;;8.40;90.10;;;;;;5064424;28;20483;-61
2021/11/18 04:56:38;;;;;;;14.50;7.75;;;8.40;90.20;;;;;;5028420;28;20187;-61
2021/11/18 04:59:04;;;;;;;18.08;8.30;;;8.40;90.10;;;;;;5028997;28;21207;-61
2021/11/18 05:01:30;;;;;;;16.00;8.05;;;8.30;90.10;;;;;;5044728;28;20041;-63
2021/11/18 05:03:56;;;;;;;17.02;8.45;;;8.30;90.10;;;;;;5012941;28;20097;-61
2021/11/18 05:06:21;;;;;;;14.35;7.30;;;8.30;90.10;;;;;;5029635;28;20551;-61
2021/11/18 05:08:47;;;;;;;14.18;8.18;;;8.30;90.20;;;;;;5028205;28;20025;-60
2021/11/18 05:11:13;;;;;;;15.40;8.27;;;8.30;90.30;;;;;;5044210;28;20115;-61
2021/11/18 05:13:38;;;;;;;20.75;7.85;;;8.30;90.20;;;;;;5025824;28;20053;-61
2021/11/18 05:16:06;;;;;;;17.05;7.93;;;8.30;90.30;;;;;;5045078;28;20411;-61
2021/11/18 05:18:32;;;;;;;14.05;7.70;;;8.20;90.20;;;;;;5029287;28;20584;-61
2021/11/18 05:20:57;;;;;;;11.45;7.03;;;8.20;90.30;;;;;;5046713;28;20052;-62
2021/11/18 05:23:23;;;;;;;14.43;8.68;;;8.20;90.40;;;;;;5024259;28;20056;-60
2021/11/18 05:25:49;;;;;;;16.60;9.35;;;8.20;90.40;;;;;;5026690;28;20039;-61
2021/11/18 05:28:14;;;;;;;15.40;8.38;;;8.20;90.30;;;;;;5028317;28;20021;-60
2021/11/18 05:30:40;;;;;;;19.02;8.07;;;8.20;90.40;;;;;;5026860;28;20063;-61
2021/11/18 05:33:09;;;;;;;15.05;8.18;;;8.20;90.40;;;;;;5045521;28;20044;-61
2021/11/18 05:35:35;;;;;;;35.53;9.27;;;8.10;90.40;;;;;;5042509;28;20348;-61
2021/11/18 05:38:00;;;;;;;33.85;9.48;;;8.10;90.40;;;;;;5027768;28;20038;-61
2021/11/18 05:40:26;;;;;;;53.42;10.60;;;8.10;90.50;;;;;;5061190;28;20073;-61
2021/11/18 05:42:52;;;;;;;75.20;12.40;;;8.10;90.50;;;;;;5029563;28;20035;-61
2021/11/18 05:45:23;;;;;;;53.80;11.88;;;8.10;90.50;;;;;;5064260;28;20051;-60
2021/11/18 05:47:49;;;;;;;78.97;12.02;;;8.10;90.50;;;;;;5026974;28;20059;-60
2021/11/18 05:50:15;;;;;;;88.47;12.77;;;8.10;90.60;;;;;;5044088;28;20736;-60
2021/11/18 05:52:41;;;;;;;99.18;15.30;;;8.00;90.60;;;;;;5043943;28;20472;-61
2021/11/18 05:55:07;;;;;;;132.43;15.32;;;8.00;90.60;;;;;;5028717;28;20162;-61
2021/11/18 05:57:33;;;;;;;87.82;13.85;;;8.00;90.60;;;;;;5045199;28;20037;-65
2021/11/18 05:59:58;;;;;;;78.43;12.63;;;8.00;90.50;;;;;;5045734;28;20035;-61
2021/11/18 06:02:24;;;;;;;77.93;13.13;;;8.00;90.60;;;;;;5025047;28;20074;-61
2021/11/18 06:04:49;;;;;;;63.85;11.50;;;8.00;90.60;;;;;;5042252;28;20040;-61
2021/11/18 06:07:15;;;;;;;90.03;12.93;;;8.00;90.70;;;;;;5028559;28;20476;-61
2021/11/18 06:09:41;;;;;;;72.05;12.60;;;8.00;90.70;;;;;;5027988;28;20422;-61
2021/11/18 06:12:08;;;;;;;51.60;11.13;;;7.90;90.60;;;;;;5029063;28;20016;-61
2021/11/18 06:14:34;;;;;;;81.78;11.55;;;8.00;90.70;;;;;;5061136;28;20032;-61
2021/11/18 06:16:59;;;;;;;71.28;10.30;;;8.00;90.80;;;;;;5059828;28;20039;-61
2021/11/18 06:19:25;;;;;;;49.90;10.50;;;8.00;90.80;;;;;;5044116;28;20079;-61
2021/11/18 06:21:54;;;;;;;61.38;10.35;;;8.00;90.80;;;;;;5062835;28;20408;-61
2021/11/18 06:24:20;;;;;;;66.38;10.95;;;8.00;90.70;;;;;;5028597;28;20380;-61
2021/11/18 06:26:46;;;;;;;42.53;10.63;;;8.00;90.70;;;;;;5044832;28;20499;-61
2021/11/18 06:29:12;;;;;;;54.30;10.05;;;8.00;90.80;;;;;;5027377;28;20020;-61
2021/11/18 06:31:38;;;;;;;63.90;11.40;;;8.00;90.80;;;;;;5026929;28;20029;-61
2021/11/18 06:34:03;;;;;;;45.90;9.30;;;8.00;90.90;;;;;;5028838;28;20529;-61
2021/11/18 06:36:29;;;;;;;46.25;8.60;;;8.00;90.90;;;;;;5063910;28;20032;-61
2021/11/18 06:38:54;;;;;;;41.47;9.02;;;8.00;90.90;;;;;;5026811;28;20401;-61
2021/11/18 06:41:21;;;;;;;45.67;8.63;;;8.00;90.90;;;;;;5027197;28;20392;-61
2021/11/18 06:43:47;;;;;;;28.33;8.05;;;7.90;91.10;;;;;;5025523;28;20303;-60
2021/11/18 06:46:13;;;;;;;47.47;8.68;;;7.90;91.20;;;;;;5029764;28;20047;-61
2021/11/18 06:48:39;;;;;;;48.00;8.48;;;7.90;91.30;;;;;;5048060;28;20036;-61
2021/11/18 06:51:07;;;;;;;42.97;7.72;;;7.90;91.50;;;;;;5031592;28;20035;-61
2021/11/18 06:53:33;;;;;;;23.38;6.65;;;7.80;91.50;;;;;;5030244;28;20055;-60
2021/11/18 06:55:59;;;;;;;35.45;7.78;;;7.80;91.60;;;;;;5029500;28;20093;-61
2021/11/18 06:58:24;;;;;;;33.92;6.60;;;7.80;91.80;;;;;;5031466;28;20476;-61
2021/11/18 07:00:50;;;;;;;45.10;7.43;;;7.70;91.80;;;;;;5067000;28;20032;-61
2021/11/18 07:03:15;;;;;;;28.52;7.18;;;7.70;91.90;;;;;;5048263;28;20046;-60
2021/11/18 07:05:41;;;;;;;19.38;6.55;;;7.70;92.00;;;;;;5047348;28;20037;-61
2021/11/18 07:08:07;;;;;;;21.40;6.95;;;7.70;92.00;;;;;;5030599;28;20103;-62
2021/11/18 07:10:33;;;;;;;22.58;6.88;;;7.70;92.10;;;;;;5030726;28;20063;-60
2021/11/18 07:12:59;;;;;;;19.35;7.97;;;7.70;92.10;;;;;;5048178;28;20321;-61
2021/11/18 07:15:26;;;;;;;17.90;7.20;;;7.70;92.20;;;;;;5066490;28;20383;-61
2021/11/18 07:17:52;;;;;;;15.70;7.07;;;7.60;92.20;;;;;;5032439;28;20021;-61
2021/11/18 07:20:18;;;;;;;18.63;6.90;;;7.60;92.20;;;;;;5065456;28;20375;-62
2021/11/18 07:22:44;;;;;;;20.30;7.10;;;7.70;92.20;;;;;;5063614;28;20029;-60
2021/11/18 07:25:12;;;;;;;15.32;7.30;;;7.70;92.20;;;;;;5065598;28;20045;-60
2021/11/18 07:27:38;;;;;;;21.50;7.57;;;7.70;92.20;;;;;;5015646;28;20539;-62
2021/11/18 07:30:04;;;;;;;19.55;6.93;;;7.70;92.20;;;;;;5031511;28;20043;-60
2021/11/18 07:32:30;;;;;;;12.38;6.85;;;7.70;92.20;;;;;;5030081;28;20032;-60
2021/11/18 07:34:55;;;;;;;13.38;6.70;;;7.70;92.10;;;;;;5047032;28;20028;-60
2021/11/18 07:37:21;;;;;;;22.00;7.00;;;7.70;92.10;;;;;;5046636;28;20040;-60
2021/11/18 07:39:46;;;;;;;24.17;7.57;;;7.80;92.10;;;;;;5063371;28;20606;-60
2021/11/18 07:42:12;;;;;;;13.48;6.20;;;7.80;92.10;;;;;;5063786;28;20074;-62
2021/11/18 07:44:38;;;;;;;12.90;6.35;;;7.80;92.00;;;;;;5065058;28;20043;-59
2021/11/18 07:47:04;;;;;;;19.73;7.13;;;7.80;92.00;;;;;;5013812;28;20016;-60
2021/11/18 07:49:29;;;;;;;16.92;6.38;;;7.80;92.00;;;;;;5029428;28;20043;-59
2021/11/18 07:51:55;;;;;;;19.98;6.32;;;7.80;91.90;;;;;;5047306;28;20024;-60
2021/11/18 07:54:24;;;;;;;20.75;6.13;;;7.90;91.90;;;;;;5031821;28;20017;-59
2021/11/18 07:56:50;;;;;;;17.77;6.22;;;7.90;91.90;;;;;;5063528;28;20043;-60
2021/11/18 07:59:17;;;;;;;18.48;6.18;;;7.90;91.80;;;;;;5029992;28;20066;-60
2021/11/18 08:01:43;;;;;;;18.63;6.82;;;7.90;91.90;;;;;;5057047;28;20024;-60
2021/11/18 08:04:09;;;;;;;19.80;7.22;;;7.90;91.90;;;;;;5012522;28;20369;-60
2021/11/18 08:06:35;;;;;;;13.60;6.40;;;7.80;91.90;;;;;;5029122;28;20021;-60
2021/11/18 08:09:00;;;;;;;16.83;6.15;;;7.90;91.90;;;;;;5046458;28;20055;-60
2021/11/18 08:11:31;;;;;;;14.27;6.32;;;7.90;91.90;;;;;;5013713;28;20020;-60
2021/11/18 08:13:56;;;;;;;17.52;6.15;;;7.90;91.90;;;;;;5029727;28;20076;-59
2021/11/18 08:16:22;;;;;;;17.25;6.72;;;7.90;91.90;;;;;;5024026;28;20076;-61
2021/11/18 08:18:48;;;;;;;19.70;6.38;;;7.90;91.90;;;;;;5043408;28;20040;-60
2021/11/18 08:21:14;;;;;;;14.68;6.28;;;8.00;91.90;;;;;;5045172;28;20510;-60
2021/11/18 08:23:39;;;;;;;13.75;6.70;;;8.00;91.90;;;;;;5062241;28;20032;-60
2021/11/18 08:26:06;;;;;;;23.48;6.40;;;8.00;91.90;;;;;;5041766;28;20047;-60
2021/11/18 08:28:32;;;;;;;15.88;6.65;;;7.90;91.90;;;;;;5027214;28;20710;-59
2021/11/18 08:30:58;;;;;;;18.00;6.65;;;8.00;91.90;;;;;;5026858;28;20040;-60
2021/11/18 08:33:23;;;;;;;19.95;7.15;;;8.00;91.90;;;;;;5010853;28;20530;-60
2021/11/18 08:35:49;;;;;;;20.92;7.60;;;8.00;91.90;;;;;;5028173;28;20023;-60
2021/11/18 08:38:16;;;;;;;19.67;6.85;;;8.00;91.90;;;;;;5042477;28;20067;-60
2021/11/18 08:40:53;;;;;;;17.88;6.28;;;8.00;91.90;;;;;;5043544;28;20115;-60
2021/11/18 08:43:22;;;;;;;13.23;6.10;;;8.00;91.90;;;;;;5040245;28;20116;-60
2021/11/18 08:45:48;;;;;;;9.75;6.05;;;8.00;91.80;;;;;;5041270;28;20037;-59
2021/11/18 08:48:14;;;;;;;21.30;6.78;;;8.10;91.80;;;;;;5042541;28;20186;-60
2021/11/18 08:50:40;;;;;;;18.17;6.63;;;8.10;91.80;;;;;;5038698;28;20063;-60
2021/11/18 08:53:06;;;;;;;19.58;6.78;;;8.10;91.80;;;;;;5043889;28;20044;-60
2021/11/18 08:55:34;;;;;;;19.08;6.97;;;8.10;91.70;;;;;;5024556;28;20522;-60
2021/11/18 08:58:00;;;;;;;22.23;6.93;;;8.20;91.80;;;;;;5021633;28;20071;-60
2021/11/18 09:00:41;;;;;;;19.20;6.70;;;8.20;91.80;;;;;;5024746;28;20029;-60
2021/11/18 09:03:07;;;;;;;26.90;7.00;;;8.20;91.80;;;;;;5033826;28;20084;-60
2021/11/18 09:05:32;;;;;;;33.33;7.72;;;8.20;91.80;;;;;;5040850;28;20112;-60
2021/11/18 09:07:59;;;;;;;27.25;7.47;;;8.20;91.90;;;;;;5023979;28;20048;-60
2021/11/18 09:10:25;;;;;;;22.95;7.63;;;8.20;91.90;;;;;;5028489;28;20112;-60
2021/11/18 09:12:50;;;;;;;31.42;7.75;;;8.30;91.90;;;;;;5022946;28;20499;-60
2021/11/18 09:15:18;;;;;;;49.60;8.25;;;8.30;91.90;;;;;;5007056;28;20036;-60
2021/11/18 09:17:44;;;;;;;51.40;9.65;;;8.30;92.00;;;;;;5025612;28;20047;-60
2021/11/18 09:20:11;;;;;;;69.93;9.77;;;8.40;92.00;;;;;;5024485;28;20024;-59
2021/11/18 09:22:37;;;;;;;51.30;9.27;;;8.40;92.00;;;;;;5040330;28;20519;-60
2021/11/18 09:25:04;;;;;;;42.80;9.23;;;8.40;92.00;;;;;;5026528;28;20127;-60
2021/11/18 09:27:36;;;;;;;60.80;9.43;;;8.40;92.00;;;;;;5040892;28;20029;-59
2021/11/18 09:30:03;;;;;;;38.55;10.10;;;8.40;92.00;;;;;;5022933;28;20055;-60
2021/11/18 09:32:30;;;;;;;38.63;8.32;;;8.50;92.00;;;;;;5053435;28;20404;-60
2021/11/18 09:34:57;;;;;;;33.80;8.88;;;8.50;91.90;;;;;;5040104;28;20033;-59
2021/11/18 09:37:22;;;;;;;45.30;9.35;;;8.50;91.90;;;;;;5021705;28;20173;-60
2021/11/18 09:39:48;;;;;;;44.63;9.00;;;8.50;91.90;;;;;;5043789;28;20087;-62
2021/11/18 09:42:16;;;;;;;61.15;9.00;;;8.60;91.90;;;;;;5042034;28;20143;-60
2021/11/18 09:45:04;;;;;;;47.55;9.70;;;8.60;91.90;;;;;;5040657;28;20589;-60
2021/11/18 09:47:58;;;;;;;46.55;9.27;;;8.60;91.90;;;;;;5022800;28;20146;-60
2021/11/18 09:50:30;;;;;;;80.00;10.65;;;8.60;91.90;;;;;;5058570;28;20085;-60
2021/11/18 09:53:53;;;;;;;54.75;9.68;;;8.70;91.80;;;;;;5040726;28;20067;-60
2021/11/18 09:56:40;;;;;;;60.35;9.43;;;8.70;91.80;;;;;;4978546;28;20061;-60
2021/11/18 09:59:26;;;;;;;45.35;10.35;;;8.70;91.80;;;;;;5055812;28;20463;-60
2021/11/18 10:02:28;;;;;;;70.38;10.38;;;8.70;91.70;;;;;;5025774;28;20064;-60
2021/11/18 10:05:00;;;;;;;67.50;11.32;;;8.70;91.70;;;;;;5056789;28;20056;-61
2021/11/18 10:07:45;;;;;;;74.82;13.57;;;8.80;91.70;;;;;;5026157;28;20027;-60
2021/11/18 10:10:11;;;;;;;64.72;11.55;;;8.80;91.80;;;;;;5058101;28;20028;-60
2021/11/18 10:12:58;;;;;;;87.03;12.35;;;8.80;91.80;;;;;;5059822;28;20669;-61
2021/11/18 10:15:30;;;;;;;75.57;12.02;;;8.80;91.70;;;;;;5041174;28;20394;-60
2021/11/18 10:18:03;;;;;;;77.93;10.10;;;8.80;91.80;;;;;;5050736;28;20020;-60
2021/11/18 10:20:34;;;;;;;97.28;14.02;;;8.90;91.80;;;;;;5041764;28;20078;-60
2021/11/18 10:23:05;;;;;;;79.53;13.68;;;8.90;91.70;;;;;;5022878;28;20109;-59
2021/11/18 10:25:35;;;;;;;93.35;13.10;;;8.90;91.70;;;;;;5034173;28;20044;-60
2021/11/18 10:28:21;;;;;;;138.43;15.35;;;8.90;91.70;;;;;;5010585;28;20476;-60
2021/11/18 10:30:59;;;;;;;;;;;9.00;91.70;;;;;;5033637;28;20635;-60
2021/11/18 10:33:29;;;;;;;104.00;12.65;;;9.00;91.70;;;;;;5045152;28;20025;-60
2021/11/18 10:36:13;;;;;;;92.20;14.13;;;9.00;91.60;;;;;;5045728;28;20709;-63
2021/11/18 10:39:25;;;;;;;98.95;13.10;;;9.00;91.70;;;;;;5029027;28;20657;-60
2021/11/18 10:41:54;;;;;;;109.32;15.73;;;9.10;91.60;;;;;;5021925;28;20048;-60
2021/11/18 10:44:23;;;;;;;98.85;13.25;;;9.10;91.70;;;;;;5011364;28;20052;-60
2021/11/18 10:47:08;;;;;;;75.82;12.95;;;9.10;91.60;;;;;;5012483;28;20482;-60
2021/11/18 10:49:56;;;;;;;128.90;18.30;;;9.10;91.60;;;;;;5030563;28;20029;-60
2021/11/18 10:52:41;;;;;;;109.50;14.43;;;9.20;91.60;;;;;;5033746;28;20376;-60
2021/11/18 10:55:12;;;;;;;129.38;17.23;;;9.20;91.70;;;;;;5044600;28;20181;-60
2021/11/18 10:57:54;;;;;;;113.75;17.25;;;9.20;91.80;;;;;;5041986;28;20051;-60
2021/11/18 11:00:43;;;;;;;104.13;15.55;;;9.20;92.00;;;;;;5040608;28;20032;-60
2021/11/18 11:03:33;;;;;;;164.20;18.35;;;9.20;91.80;;;;;;5026454;28;20058;-60
2021/11/18 11:06:06;;;;;;;142.95;18.65;;;9.30;91.90;;;;;;5041936;28;20121;-60
2021/11/18 11:08:31;;;;;;;179.15;19.45;;;9.30;91.80;;;;;;5059962;28;20045;-60
2021/11/18 11:11:12;;;;;;;154.52;17.98;;;9.30;91.80;;;;;;5048402;28;20016;-60
2021/11/18 11:14:06;;;;;;;127.43;17.90;;;9.30;91.80;;;;;;5041349;28;20066;-61
2021/11/18 11:16:51;;;;;;;146.95;18.77;;;9.40;91.80;;;;;;5056865;28;20037;-60
2021/11/18 11:19:42;;;;;;;257.08;25.83;;;9.40;91.70;;;;;;5046317;28;20032;-61
2021/11/18 11:22:40;;;;;;;158.77;20.38;;;9.40;91.80;;;;;;5042389;28;20024;-61
2021/11/18 11:25:06;;;;;;;175.82;18.45;;;9.40;91.80;;;;;;5027315;28;20048;-60
2021/11/18 11:27:52;;;;;;;140.70;18.35;;;9.40;91.70;;;;;;5058440;28;20372;-61
2021/11/18 11:30:44;;;;;;;151.65;19.50;;;9.40;91.70;;;;;;5057886;28;20040;-60
2021/11/18 11:33:35;;;;;;;179.88;20.08;;;9.50;91.70;;;;;;5040797;28;20017;-61
2021/11/18 11:36:17;;;;;;;129.30;19.30;;;9.50;91.80;;;;;;5041202;28;20107;-60
2021/11/18 11:39:04;;;;;;;142.98;17.92;;;9.50;91.70;;;;;;5045901;28;20478;-61
2021/11/18 11:42:01;;;;;;;137.75;19.05;;;9.50;91.80;;;;;;5043270;28;20032;-60
2021/11/18 11:44:49;;;;;;;146.50;20.50;;;9.60;91.80;;;;;;5037662;28;20408;-60
2021/11/18 11:47:53;;;;;;;156.55;20.13;;;9.60;91.90;;;;;;5043419;28;20106;-60
2021/11/18 11:50:38;;;;;;;165.43;18.77;;;9.60;91.80;;;;;;5046153;28;20035;-61
2021/11/18 11:53:24;;;;;;;187.35;20.90;;;9.60;91.80;;;;;;5056051;28;20052;-60
2021/11/18 11:55:57;;;;;;;174.80;21.52;;;9.60;91.80;;;;;;5043143;28;20103;-60
2021/11/18 11:58:55;;;;;;;179.63;21.45;;;9.60;91.70;;;;;;5036757;28;20040;-60
2021/11/18 12:01:57;;;;;;;191.52;22.88;;;9.70;91.80;;;;;;5055239;28;20047;-60
2021/11/18 12:04:27;;;;;;;189.57;22.50;;;9.70;91.90;;;;;;5026309;28;20431;-61
2021/11/18 12:07:03;;;;;;;192.07;23.02;;;9.70;91.80;;;;;;5043303;28;20070;-60
2021/11/18 12:09:47;;;;;;;;;;;9.70;91.70;;;;;;5043334;28;20147;-60
2021/11/18 12:12:37;;;;;;;190.43;21.90;;;9.70;91.70;;;;;;5060827;28;20428;-61
2021/11/18 12:15:09;;;;;;;193.75;22.88;;;9.70;91.70;;;;;;5035465;28;20044;-61
2021/11/18 12:17:42;;;;;;;200.32;25.05;;;9.80;91.80;;;;;;5025557;28;20474;-61
2021/11/18 12:20:13;;;;;;;189.05;23.30;;;9.80;91.70;;;;;;5026148;28;20122;-61
2021/11/18 12:22:39;;;;;;;205.25;24.60;;;9.80;91.80;;;;;;5044015;28;20038;-61
2021/11/18 12:25:16;;;;;;;216.48;25.45;;;9.80;91.80;;;;;;5061428;28;20040;-61
2021/11/18 12:27:58;;;;;;;234.45;26.52;;;9.90;91.80;;;;;;5038703;28;20037;-60
2021/11/18 12:30:42;;;;;;;183.98;23.70;;;9.90;91.70;;;;;;5058004;28;20175;-60
2021/11/18 12:33:18;;;;;;;200.63;25.90;;;9.90;91.60;;;;;;5043359;28;20502;-61
2021/11/18 12:35:46;;;;;;;195.98;24.80;;;9.90;91.60;;;;;;5036597;28;20213;-60
2021/11/18 12:38:30;;;;;;;178.70;23.52;;;10.00;91.60;;;;;;5056747;28;20028;-61
2021/11/18 12:41:13;;;;;;;202.00;24.23;;;10.00;91.60;;;;;;5055135;28;20025;-60
2021/11/18 12:44:16;;;;;;;210.23;25.48;;;10.00;91.60;;;;;;5042376;28;20572;-60
2021/11/18 12:47:05;;;;;;;180.52;23.98;;;10.00;91.50;;;;;;5047670;28;20029;-60
2021/11/18 12:49:47;;;;;;;207.52;25.10;;;10.00;91.50;;;;;;5041719;28;20039;-60
2021/11/18 12:52:19;;;;;;;183.75;23.23;;;10.00;91.40;;;;;;5043403;28;20029;-60
2021/11/18 12:55:15;;;;;;;181.10;22.40;;;10.00;91.40;;;;;;5057326;28;20036;-61
2021/11/18 12:57:55;;;;;;;155.50;20.73;;;10.10;91.40;;;;;;5057776;28;20103;-60